sensor_id;sensor_type;location;lat;lon;timestamp;temperature;humidity
23116;DHT22;11727;52.134;5.052;2023-05-10T00:01:58;13.10;99.90
23116;DHT22;11727;52.134;5.052;2023-05-10T00:04:24;13.10;99.90
23116;DHT22;11727;52.134;5.052;2023-05-10T00:06:53;13.10;99.90
23116;DHT22;11727;52.134;5.052;2023-05-10T00:09:18;13.10;99.90
23116;DHT22;11727;52.134;5.052;2023-05-10T00:11:44;13.10;99.90
23116;DHT22;11727;52.134;5.052;2023-05-10T00:14:10;13.10;99.90
23116;DHT22;11727;52.134;5.052;2023-05-10T00:16:35;13.00;99.90
23116;DHT22;11727;52.134;5.052;2023-05-10T00:19:01;13.00;99.90
23116;DHT22;11727;52.134;5.052;2023-05-10T00:21:26;13.00;99.90
23116;DHT22;11727;52.134;5.052;2023-05-10T00:23:53;13.00;99.90
23116;DHT22;11727;52.134;5.052;2023-05-10T00:26:19;13.00;99.90
23116;DHT22;11727;52.134;5.052;2023-05-10T00:28:45;13.00;99.90
23116;DHT22;11727;52.134;5.052;2023-05-10T00:31:11;13.00;99.90
23116;DHT22;11727;52.134;5.052;2023-05-10T00:33:40;12.90;99.90
23116;DHT22;11727;52.134;5.052;2023-05-10T00:36:05;12.90;99.90
23116;DHT22;11727;52.134;5.052;2023-05-10T00:38:33;12.90;99.90
23116;DHT22;11727;52.134;5.052;2023-05-10T00:40:58;12.90;99.90
23116;DHT22;11727;52.134;5.052;2023-05-10T00:43:24;12.90;99.90
23116;DHT22;11727;52.134;5.052;2023-05-10T00:45:50;12.90;99.90
23116;DHT22;11727;52.134;5.052;2023-05-10T00:48:16;12.90;99.90
23116;DHT22;11727;52.134;5.052;2023-05-10T00:50:41;12.80;99.90
23116;DHT22;11727;52.134;5.052;2023-05-10T00:53:07;12.80;99.90
23116;DHT22;11727;52.134;5.052;2023-05-10T00:55:33;12.80;99.90
23116;DHT22;11727;52.134;5.052;2023-05-10T00:57:59;12.80;99.90
23116;DHT22;11727;52.134;5.052;2023-05-10T01:00:24;12.70;99.90
23116;DHT22;11727;52.134;5.052;2023-05-10T01:02:51;12.80;99.90
23116;DHT22;11727;52.134;5.052;2023-05-10T01:05:18;12.80;99.90
23116;DHT22;11727;52.134;5.052;2023-05-10T01:07:44;12.80;99.90
23116;DHT22;11727;52.134;5.052;2023-05-10T01:10:09;12.80;99.90
23116;DHT22;11727;52.134;5.052;2023-05-10T01:12:39;12.80;99.90
23116;DHT22;11727;52.134;5.052;2023-05-10T01:15:08;12.80;99.90
23116;DHT22;11727;52.134;5.052;2023-05-10T01:17:39;12.80;99.90
23116;DHT22;11727;52.134;5.052;2023-05-10T01:20:07;12.80;99.90
23116;DHT22;11727;52.134;5.052;2023-05-10T01:26:04;12.80;99.90
23116;DHT22;11727;52.134;5.052;2023-05-10T01:34:25;12.80;99.90
23116;DHT22;11727;52.134;5.052;2023-05-10T01:37:00;12.80;99.90
23116;DHT22;11727;52.134;5.052;2023-05-10T01:39:47;12.80;99.90
23116;DHT22;11727;52.134;5.052;2023-05-10T01:42:20;12.80;99.90
23116;DHT22;11727;52.134;5.052;2023-05-10T01:47:38;12.80;99.90
23116;DHT22;11727;52.134;5.052;2023-05-10T01:50:10;12.80;99.90
23116;DHT22;11727;52.134;5.052;2023-05-10T01:52:42;12.80;99.90
23116;DHT22;11727;52.134;5.052;2023-05-10T01:55:14;12.80;99.90
23116;DHT22;11727;52.134;5.052;2023-05-10T01:57:44;12.80;99.90
23116;DHT22;11727;52.134;5.052;2023-05-10T02:00:14;12.80;99.90
23116;DHT22;11727;52.134;5.052;2023-05-10T02:02:42;12.80;99.90
23116;DHT22;11727;52.134;5.052;2023-05-10T02:05:12;12.70;99.90
23116;DHT22;11727;52.134;5.052;2023-05-10T02:07:38;12.70;99.90
23116;DHT22;11727;52.134;5.052;2023-05-10T02:10:05;12.70;99.90
23116;DHT22;11727;52.134;5.052;2023-05-10T02:12:35;12.70;99.90
23116;DHT22;11727;52.134;5.052;2023-05-10T02:15:03;12.60;99.90
23116;DHT22;11727;52.134;5.052;2023-05-10T02:17:31;12.60;99.90
23116;DHT22;11727;52.134;5.052;2023-05-10T02:19:59;12.60;99.90
23116;DHT22;11727;52.134;5.052;2023-05-10T02:22:26;12.60;99.90
23116;DHT22;11727;52.134;5.052;2023-05-10T02:24:54;12.70;99.90
23116;DHT22;11727;52.134;5.052;2023-05-10T02:27:21;12.70;99.90
23116;DHT22;11727;52.134;5.052;2023-05-10T02:29:49;12.70;99.90
23116;DHT22;11727;52.134;5.052;2023-05-10T02:32:16;12.70;99.90
23116;DHT22;11727;52.134;5.052;2023-05-10T02:34:43;12.70;99.90
23116;DHT22;11727;52.134;5.052;2023-05-10T02:37:13;12.60;99.90
23116;DHT22;11727;52.134;5.052;2023-05-10T02:39:40;12.70;99.90
23116;DHT22;11727;52.134;5.052;2023-05-10T02:42:15;12.70;99.90
23116;DHT22;11727;52.134;5.052;2023-05-10T02:44:41;12.70;99.90
23116;DHT22;11727;52.134;5.052;2023-05-10T02:47:08;12.70;99.90
23116;DHT22;11727;52.134;5.052;2023-05-10T02:49:34;12.70;99.90
23116;DHT22;11727;52.134;5.052;2023-05-10T02:52:01;12.60;99.90
23116;DHT22;11727;52.134;5.052;2023-05-10T02:54:33;12.60;99.90
23116;DHT22;11727;52.134;5.052;2023-05-10T02:57:04;12.60;99.90
23116;DHT22;11727;52.134;5.052;2023-05-10T02:59:30;12.60;99.90
23116;DHT22;11727;52.134;5.052;2023-05-10T03:01:56;12.60;99.90
23116;DHT22;11727;52.134;5.052;2023-05-10T03:04:21;12.50;99.90
23116;DHT22;11727;52.134;5.052;2023-05-10T03:06:47;12.60;99.90
23116;DHT22;11727;52.134;5.052;2023-05-10T03:09:13;12.50;99.90
23116;DHT22;11727;52.134;5.052;2023-05-10T03:12:04;12.50;99.90
23116;DHT22;11727;52.134;5.052;2023-05-10T03:14:53;12.50;99.90
23116;DHT22;11727;52.134;5.052;2023-05-10T03:17:29;12.50;99.90
23116;DHT22;11727;52.134;5.052;2023-05-10T03:19:58;12.50;99.90
23116;DHT22;11727;52.134;5.052;2023-05-10T03:22:45;12.50;99.90
23116;DHT22;11727;52.134;5.052;2023-05-10T03:25:12;12.50;99.90
23116;DHT22;11727;52.134;5.052;2023-05-10T03:27:43;12.40;99.90
23116;DHT22;11727;52.134;5.052;2023-05-10T03:30:11;12.40;99.90
23116;DHT22;11727;52.134;5.052;2023-05-10T03:32:37;12.50;99.90
23116;DHT22;11727;52.134;5.052;2023-05-10T03:35:10;12.50;99.90
23116;DHT22;11727;52.134;5.052;2023-05-10T03:37:37;12.50;99.90
23116;DHT22;11727;52.134;5.052;2023-05-10T03:40:03;12.50;99.90
23116;DHT22;11727;52.134;5.052;2023-05-10T03:42:29;12.50;99.90
23116;DHT22;11727;52.134;5.052;2023-05-10T03:44:55;12.50;99.90
23116;DHT22;11727;52.134;5.052;2023-05-10T03:47:20;12.50;99.90
23116;DHT22;11727;52.134;5.052;2023-05-10T03:49:46;12.50;99.90
23116;DHT22;11727;52.134;5.052;2023-05-10T03:52:12;12.50;99.90
23116;DHT22;11727;52.134;5.052;2023-05-10T03:54:37;12.50;99.90
23116;DHT22;11727;52.134;5.052;2023-05-10T03:57:03;12.50;99.90
23116;DHT22;11727;52.134;5.052;2023-05-10T03:59:29;12.50;99.90
23116;DHT22;11727;52.134;5.052;2023-05-10T04:01:55;12.50;99.90
23116;DHT22;11727;52.134;5.052;2023-05-10T04:04:21;12.50;99.90
23116;DHT22;11727;52.134;5.052;2023-05-10T04:06:48;12.50;99.90
23116;DHT22;11727;52.134;5.052;2023-05-10T04:09:14;12.50;99.90
23116;DHT22;11727;52.134;5.052;2023-05-10T04:11:39;12.50;99.90
23116;DHT22;11727;52.134;5.052;2023-05-10T04:14:05;12.50;99.90
23116;DHT22;11727;52.134;5.052;2023-05-10T04:16:30;12.50;99.90
23116;DHT22;11727;52.134;5.052;2023-05-10T04:18:56;12.50;99.90
23116;DHT22;11727;52.134;5.052;2023-05-10T04:21:22;12.50;99.90
23116;DHT22;11727;52.134;5.052;2023-05-10T04:23:48;12.50;99.90
23116;DHT22;11727;52.134;5.052;2023-05-10T04:26:14;12.60;99.90
23116;DHT22;11727;52.134;5.052;2023-05-10T04:28:39;12.60;99.90
23116;DHT22;11727;52.134;5.052;2023-05-10T04:31:06;12.50;99.90
23116;DHT22;11727;52.134;5.052;2023-05-10T04:33:32;12.60;99.90
23116;DHT22;11727;52.134;5.052;2023-05-10T04:35:58;12.50;99.90
23116;DHT22;11727;52.134;5.052;2023-05-10T04:38:24;12.60;99.90
23116;DHT22;11727;52.134;5.052;2023-05-10T04:40:50;12.60;99.90
23116;DHT22;11727;52.134;5.052;2023-05-10T04:43:16;12.60;99.90
23116;DHT22;11727;52.134;5.052;2023-05-10T04:45:41;12.60;99.90
23116;DHT22;11727;52.134;5.052;2023-05-10T04:48:07;12.60;99.90
23116;DHT22;11727;52.134;5.052;2023-05-10T04:50:33;12.60;99.90
23116;DHT22;11727;52.134;5.052;2023-05-10T04:52:58;12.60;99.90
23116;DHT22;11727;52.134;5.052;2023-05-10T04:55:24;12.60;99.90
23116;DHT22;11727;52.134;5.052;2023-05-10T04:57:50;12.60;99.90
23116;DHT22;11727;52.134;5.052;2023-05-10T05:00:16;12.60;99.90
23116;DHT22;11727;52.134;5.052;2023-05-10T05:02:45;12.60;99.90
23116;DHT22;11727;52.134;5.052;2023-05-10T05:05:11;12.60;99.90
23116;DHT22;11727;52.134;5.052;2023-05-10T05:07:37;12.60;99.90
23116;DHT22;11727;52.134;5.052;2023-05-10T05:10:07;12.50;99.90
23116;DHT22;11727;52.134;5.052;2023-05-10T05:12:34;12.50;99.90
23116;DHT22;11727;52.134;5.052;2023-05-10T05:14:59;12.50;99.90
23116;DHT22;11727;52.134;5.052;2023-05-10T05:17:25;12.40;99.90
23116;DHT22;11727;52.134;5.052;2023-05-10T05:19:51;12.40;99.90
23116;DHT22;11727;52.134;5.052;2023-05-10T05:22:16;12.40;99.90
23116;DHT22;11727;52.134;5.052;2023-05-10T05:24:42;12.40;99.90
23116;DHT22;11727;52.134;5.052;2023-05-10T05:27:08;12.30;99.90
23116;DHT22;11727;52.134;5.052;2023-05-10T05:29:33;12.30;99.90
23116;DHT22;11727;52.134;5.052;2023-05-10T05:31:59;12.20;99.90
23116;DHT22;11727;52.134;5.052;2023-05-10T05:34:25;12.20;99.90
23116;DHT22;11727;52.134;5.052;2023-05-10T05:36:51;12.20;99.90
23116;DHT22;11727;52.134;5.052;2023-05-10T05:39:21;12.20;99.90
23116;DHT22;11727;52.134;5.052;2023-05-10T05:41:49;12.20;99.90
23116;DHT22;11727;52.134;5.052;2023-05-10T05:44:15;12.30;99.90
23116;DHT22;11727;52.134;5.052;2023-05-10T05:46:42;12.40;99.90
23116;DHT22;11727;52.134;5.052;2023-05-10T05:49:07;12.40;99.90
23116;DHT22;11727;52.134;5.052;2023-05-10T05:51:33;12.40;99.90
23116;DHT22;11727;52.134;5.052;2023-05-10T05:54:00;12.40;99.90
23116;DHT22;11727;52.134;5.052;2023-05-10T05:56:25;12.40;99.90
23116;DHT22;11727;52.134;5.052;2023-05-10T05:58:51;12.40;99.90
23116;DHT22;11727;52.134;5.052;2023-05-10T06:01:17;12.40;99.90
23116;DHT22;11727;52.134;5.052;2023-05-10T06:03:43;12.30;99.90
23116;DHT22;11727;52.134;5.052;2023-05-10T06:06:08;12.40;99.90
23116;DHT22;11727;52.134;5.052;2023-05-10T06:08:34;12.40;99.90
23116;DHT22;11727;52.134;5.052;2023-05-10T06:11:01;12.30;99.90
23116;DHT22;11727;52.134;5.052;2023-05-10T06:13:27;12.30;99.90
23116;DHT22;11727;52.134;5.052;2023-05-10T06:16:02;12.30;99.90
23116;DHT22;11727;52.134;5.052;2023-05-10T06:18:27;12.30;99.90
23116;DHT22;11727;52.134;5.052;2023-05-10T06:20:53;12.20;99.90
23116;DHT22;11727;52.134;5.052;2023-05-10T06:23:19;12.30;99.90
23116;DHT22;11727;52.134;5.052;2023-05-10T06:25:44;12.30;99.90
23116;DHT22;11727;52.134;5.052;2023-05-10T06:28:10;12.40;99.90
23116;DHT22;11727;52.134;5.052;2023-05-10T06:30:36;12.50;99.90
23116;DHT22;11727;52.134;5.052;2023-05-10T06:33:02;12.50;99.90
23116;DHT22;11727;52.134;5.052;2023-05-10T06:35:32;12.60;99.90
23116;DHT22;11727;52.134;5.052;2023-05-10T06:37:59;12.60;99.90
23116;DHT22;11727;52.134;5.052;2023-05-10T06:40:24;12.60;99.90
23116;DHT22;11727;52.134;5.052;2023-05-10T06:42:50;12.70;99.90
23116;DHT22;11727;52.134;5.052;2023-05-10T06:45:16;12.70;99.90
23116;DHT22;11727;52.134;5.052;2023-05-10T06:47:41;12.80;99.90
23116;DHT22;11727;52.134;5.052;2023-05-10T06:50:08;12.90;99.90
23116;DHT22;11727;52.134;5.052;2023-05-10T06:52:34;12.90;99.90
23116;DHT22;11727;52.134;5.052;2023-05-10T06:55:00;13.00;99.90
23116;DHT22;11727;52.134;5.052;2023-05-10T06:57:26;13.00;99.90
23116;DHT22;11727;52.134;5.052;2023-05-10T06:59:52;13.00;99.90
23116;DHT22;11727;52.134;5.052;2023-05-10T07:02:18;13.00;99.90
23116;DHT22;11727;52.134;5.052;2023-05-10T07:04:43;13.10;99.90
23116;DHT22;11727;52.134;5.052;2023-05-10T07:07:09;13.10;99.90
23116;DHT22;11727;52.134;5.052;2023-05-10T07:09:34;13.00;99.90
23116;DHT22;11727;52.134;5.052;2023-05-10T07:12:00;13.00;99.90
23116;DHT22;11727;52.134;5.052;2023-05-10T07:14:27;13.00;99.90
23116;DHT22;11727;52.134;5.052;2023-05-10T07:16:53;13.10;99.90
23116;DHT22;11727;52.134;5.052;2023-05-10T07:19:18;13.10;99.90
23116;DHT22;11727;52.134;5.052;2023-05-10T07:21:45;13.10;99.90
23116;DHT22;11727;52.134;5.052;2023-05-10T07:24:10;13.10;99.90
23116;DHT22;11727;52.134;5.052;2023-05-10T07:26:36;13.10;99.90
23116;DHT22;11727;52.134;5.052;2023-05-10T07:29:02;13.00;99.90
23116;DHT22;11727;52.134;5.052;2023-05-10T07:31:28;13.00;99.90
23116;DHT22;11727;52.134;5.052;2023-05-10T07:33:53;13.00;99.90
23116;DHT22;11727;52.134;5.052;2023-05-10T07:36:19;13.00;99.90
23116;DHT22;11727;52.134;5.052;2023-05-10T07:38:45;13.00;99.90
23116;DHT22;11727;52.134;5.052;2023-05-10T07:41:14;13.00;99.90
23116;DHT22;11727;52.134;5.052;2023-05-10T07:43:39;13.00;99.90
23116;DHT22;11727;52.134;5.052;2023-05-10T07:46:05;13.10;99.90
23116;DHT22;11727;52.134;5.052;2023-05-10T07:48:31;13.10;99.90
23116;DHT22;11727;52.134;5.052;2023-05-10T07:50:57;13.00;99.90
23116;DHT22;11727;52.134;5.052;2023-05-10T07:53:22;13.00;99.90
23116;DHT22;11727;52.134;5.052;2023-05-10T07:55:52;13.10;99.90
23116;DHT22;11727;52.134;5.052;2023-05-10T07:58:19;13.10;99.90
23116;DHT22;11727;52.134;5.052;2023-05-10T08:00:45;13.10;99.90
23116;DHT22;11727;52.134;5.052;2023-05-10T08:03:10;13.20;99.90
23116;DHT22;11727;52.134;5.052;2023-05-10T08:05:36;13.30;99.90
23116;DHT22;11727;52.134;5.052;2023-05-10T08:08:02;13.40;99.90
23116;DHT22;11727;52.134;5.052;2023-05-10T08:10:27;13.50;99.90
23116;DHT22;11727;52.134;5.052;2023-05-10T08:12:53;13.50;99.90
23116;DHT22;11727;52.134;5.052;2023-05-10T08:15:19;13.40;99.90
23116;DHT22;11727;52.134;5.052;2023-05-10T08:17:44;13.50;99.90
23116;DHT22;11727;52.134;5.052;2023-05-10T08:20:10;13.50;99.90
23116;DHT22;11727;52.134;5.052;2023-05-10T08:22:38;13.50;99.90
23116;DHT22;11727;52.134;5.052;2023-05-10T08:25:04;13.50;99.90
23116;DHT22;11727;52.134;5.052;2023-05-10T08:27:29;13.50;99.90
23116;DHT22;11727;52.134;5.052;2023-05-10T08:29:55;13.50;99.90
23116;DHT22;11727;52.134;5.052;2023-05-10T08:32:20;13.60;99.90
23116;DHT22;11727;52.134;5.052;2023-05-10T08:34:46;13.60;99.90
23116;DHT22;11727;52.134;5.052;2023-05-10T08:37:12;13.70;99.90
23116;DHT22;11727;52.134;5.052;2023-05-10T08:39:38;13.60;99.90
23116;DHT22;11727;52.134;5.052;2023-05-10T08:42:04;13.60;99.90
23116;DHT22;11727;52.134;5.052;2023-05-10T08:44:35;13.60;99.90
23116;DHT22;11727;52.134;5.052;2023-05-10T08:47:06;13.60;99.90
23116;DHT22;11727;52.134;5.052;2023-05-10T08:49:32;13.70;99.90
23116;DHT22;11727;52.134;5.052;2023-05-10T08:52:03;13.70;99.90
23116;DHT22;11727;52.134;5.052;2023-05-10T08:54:31;13.80;99.90
23116;DHT22;11727;52.134;5.052;2023-05-10T08:56:56;14.00;99.90
23116;DHT22;11727;52.134;5.052;2023-05-10T08:59:22;14.00;99.90
23116;DHT22;11727;52.134;5.052;2023-05-10T09:01:49;14.10;99.90
23116;DHT22;11727;52.134;5.052;2023-05-10T09:04:15;14.10;99.90
23116;DHT22;11727;52.134;5.052;2023-05-10T09:06:41;14.20;99.90
23116;DHT22;11727;52.134;5.052;2023-05-10T09:09:07;14.20;99.90
23116;DHT22;11727;52.134;5.052;2023-05-10T09:11:33;14.20;99.90
23116;DHT22;11727;52.134;5.052;2023-05-10T09:13:58;14.30;99.90
23116;DHT22;11727;52.134;5.052;2023-05-10T09:16:24;14.30;99.90
23116;DHT22;11727;52.134;5.052;2023-05-10T09:18:53;14.40;99.90
23116;DHT22;11727;52.134;5.052;2023-05-10T09:21:19;14.40;99.90
23116;DHT22;11727;52.134;5.052;2023-05-10T09:23:46;14.50;99.90
23116;DHT22;11727;52.134;5.052;2023-05-10T09:26:12;14.50;99.90
23116;DHT22;11727;52.134;5.052;2023-05-10T09:28:51;14.50;99.90
23116;DHT22;11727;52.134;5.052;2023-05-10T09:31:16;14.40;99.90
23116;DHT22;11727;52.134;5.052;2023-05-10T09:33:46;14.40;99.90
23116;DHT22;11727;52.134;5.052;2023-05-10T09:36:12;14.30;99.90
23116;DHT22;11727;52.134;5.052;2023-05-10T09:38:52;14.20;99.90
23116;DHT22;11727;52.134;5.052;2023-05-10T09:41:24;14.20;99.90
23116;DHT22;11727;52.134;5.052;2023-05-10T09:43:55;14.20;99.90
23116;DHT22;11727;52.134;5.052;2023-05-10T09:46:21;14.10;99.90
23116;DHT22;11727;52.134;5.052;2023-05-10T09:48:48;14.20;99.90
23116;DHT22;11727;52.134;5.052;2023-05-10T09:51:21;14.20;99.90
23116;DHT22;11727;52.134;5.052;2023-05-10T09:53:47;14.30;99.90
23116;DHT22;11727;52.134;5.052;2023-05-10T09:56:32;14.30;99.90
23116;DHT22;11727;52.134;5.052;2023-05-10T09:59:04;14.30;99.90
23116;DHT22;11727;52.134;5.052;2023-05-10T10:01:30;14.30;99.90
23116;DHT22;11727;52.134;5.052;2023-05-10T10:03:57;14.40;99.90
23116;DHT22;11727;52.134;5.052;2023-05-10T10:06:23;14.40;99.90
23116;DHT22;11727;52.134;5.052;2023-05-10T10:08:50;14.40;99.90
23116;DHT22;11727;52.134;5.052;2023-05-10T10:11:16;14.40;99.90
23116;DHT22;11727;52.134;5.052;2023-05-10T10:13:42;14.30;99.90
23116;DHT22;11727;52.134;5.052;2023-05-10T10:16:08;14.30;99.90
23116;DHT22;11727;52.134;5.052;2023-05-10T10:18:36;14.30;99.90
23116;DHT22;11727;52.134;5.052;2023-05-10T10:21:08;14.40;99.90
23116;DHT22;11727;52.134;5.052;2023-05-10T10:23:37;14.50;99.90
23116;DHT22;11727;52.134;5.052;2023-05-10T10:26:04;14.70;99.90
23116;DHT22;11727;52.134;5.052;2023-05-10T10:31:36;15.00;99.90
23116;DHT22;11727;52.134;5.052;2023-05-10T10:34:09;15.10;99.90
23116;DHT22;11727;52.134;5.052;2023-05-10T10:36:45;15.20;99.90
23116;DHT22;11727;52.134;5.052;2023-05-10T10:39:11;15.30;99.90
23116;DHT22;11727;52.134;5.052;2023-05-10T10:41:51;15.30;99.90
23116;DHT22;11727;52.134;5.052;2023-05-10T10:44:30;15.30;99.90
23116;DHT22;11727;52.134;5.052;2023-05-10T10:49:50;15.40;99.90
23116;DHT22;11727;52.134;5.052;2023-05-10T10:55:19;15.40;99.90
23116;DHT22;11727;52.134;5.052;2023-05-10T10:57:53;15.40;99.90
23116;DHT22;11727;52.134;5.052;2023-05-10T11:00:30;15.30;99.90
23116;DHT22;11727;52.134;5.052;2023-05-10T11:03:10;15.30;99.90
23116;DHT22;11727;52.134;5.052;2023-05-10T11:05:47;15.10;99.90
23116;DHT22;11727;52.134;5.052;2023-05-10T11:08:29;15.00;99.90
23116;DHT22;11727;52.134;5.052;2023-05-10T11:11:02;14.90;99.90
23116;DHT22;11727;52.134;5.052;2023-05-10T11:13:44;14.80;99.90
23116;DHT22;11727;52.134;5.052;2023-05-10T11:16:15;14.80;99.90
23116;DHT22;11727;52.134;5.052;2023-05-10T11:21:17;14.80;99.90
23116;DHT22;11727;52.134;5.052;2023-05-10T11:23:56;14.90;99.90
23116;DHT22;11727;52.134;5.052;2023-05-10T11:26:32;15.00;99.90
23116;DHT22;11727;52.134;5.052;2023-05-10T11:28:59;15.10;99.90
23116;DHT22;11727;52.134;5.052;2023-05-10T11:31:26;15.30;99.90
23116;DHT22;11727;52.134;5.052;2023-05-10T11:33:56;15.40;99.90
23116;DHT22;11727;52.134;5.052;2023-05-10T11:36:25;15.60;99.90
23116;DHT22;11727;52.134;5.052;2023-05-10T11:38:52;15.70;99.90
23116;DHT22;11727;52.134;5.052;2023-05-10T11:41:19;15.90;99.90
23116;DHT22;11727;52.134;5.052;2023-05-10T11:43:48;16.00;99.90
23116;DHT22;11727;52.134;5.052;2023-05-10T11:46:14;16.00;99.90
23116;DHT22;11727;52.134;5.052;2023-05-10T11:48:41;16.10;99.90
23116;DHT22;11727;52.134;5.052;2023-05-10T11:51:08;16.10;99.90
23116;DHT22;11727;52.134;5.052;2023-05-10T11:53:34;16.00;99.90
23116;DHT22;11727;52.134;5.052;2023-05-10T11:56:07;16.00;99.90
23116;DHT22;11727;52.134;5.052;2023-05-10T11:58:34;15.90;99.90
23116;DHT22;11727;52.134;5.052;2023-05-10T12:01:00;15.80;99.90
23116;DHT22;11727;52.134;5.052;2023-05-10T12:03:29;15.70;99.90
23116;DHT22;11727;52.134;5.052;2023-05-10T12:05:56;15.70;99.90
23116;DHT22;11727;52.134;5.052;2023-05-10T12:08:26;15.60;99.90
23116;DHT22;11727;52.134;5.052;2023-05-10T12:10:53;15.50;99.90
23116;DHT22;11727;52.134;5.052;2023-05-10T12:13:19;15.40;99.90
23116;DHT22;11727;52.134;5.052;2023-05-10T12:15:46;15.20;99.90
23116;DHT22;11727;52.134;5.052;2023-05-10T12:18:13;15.00;99.90
23116;DHT22;11727;52.134;5.052;2023-05-10T12:20:39;14.80;99.90
23116;DHT22;11727;52.134;5.052;2023-05-10T12:23:07;14.60;99.90
23116;DHT22;11727;52.134;5.052;2023-05-10T12:25:34;14.50;99.90
23116;DHT22;11727;52.134;5.052;2023-05-10T12:28:03;14.30;99.90
23116;DHT22;11727;52.134;5.052;2023-05-10T12:30:31;14.10;99.90
23116;DHT22;11727;52.134;5.052;2023-05-10T12:33:17;14.00;99.90
23116;DHT22;11727;52.134;5.052;2023-05-10T12:35:51;13.80;99.90
23116;DHT22;11727;52.134;5.052;2023-05-10T12:38:29;13.80;99.90
23116;DHT22;11727;52.134;5.052;2023-05-10T12:41:00;13.70;99.90
23116;DHT22;11727;52.134;5.052;2023-05-10T12:43:39;13.60;99.90
23116;DHT22;11727;52.134;5.052;2023-05-10T12:46:17;13.60;99.90
23116;DHT22;11727;52.134;5.052;2023-05-10T12:48:44;13.60;99.90
23116;DHT22;11727;52.134;5.052;2023-05-10T12:51:20;13.70;99.90
23116;DHT22;11727;52.134;5.052;2023-05-10T12:53:52;13.70;99.90
23116;DHT22;11727;52.134;5.052;2023-05-10T12:56:21;13.70;99.90
23116;DHT22;11727;52.134;5.052;2023-05-10T12:58:46;13.70;99.90
23116;DHT22;11727;52.134;5.052;2023-05-10T13:01:13;13.70;99.90
23116;DHT22;11727;52.134;5.052;2023-05-10T13:03:39;13.70;99.90
23116;DHT22;11727;52.134;5.052;2023-05-10T13:06:05;13.70;99.90
23116;DHT22;11727;52.134;5.052;2023-05-10T13:08:31;13.70;99.90
23116;DHT22;11727;52.134;5.052;2023-05-10T13:10:59;13.80;99.90
23116;DHT22;11727;52.134;5.052;2023-05-10T13:13:25;13.70;99.90
23116;DHT22;11727;52.134;5.052;2023-05-10T13:15:51;13.80;99.90
23116;DHT22;11727;52.134;5.052;2023-05-10T13:18:17;13.80;99.90
23116;DHT22;11727;52.134;5.052;2023-05-10T13:20:42;13.80;99.90
23116;DHT22;11727;52.134;5.052;2023-05-10T13:23:10;13.90;99.90
23116;DHT22;11727;52.134;5.052;2023-05-10T13:25:35;13.80;99.90
23116;DHT22;11727;52.134;5.052;2023-05-10T13:28:01;13.80;99.90
23116;DHT22;11727;52.134;5.052;2023-05-10T13:30:27;13.80;99.90
23116;DHT22;11727;52.134;5.052;2023-05-10T13:32:54;13.80;99.90
23116;DHT22;11727;52.134;5.052;2023-05-10T13:35:20;13.70;99.90
23116;DHT22;11727;52.134;5.052;2023-05-10T13:37:45;13.60;99.90
23116;DHT22;11727;52.134;5.052;2023-05-10T13:40:11;13.60;99.90
23116;DHT22;11727;52.134;5.052;2023-05-10T13:42:37;13.60;99.90
23116;DHT22;11727;52.134;5.052;2023-05-10T13:45:06;13.60;99.90
23116;DHT22;11727;52.134;5.052;2023-05-10T13:47:32;13.60;99.90
23116;DHT22;11727;52.134;5.052;2023-05-10T13:49:58;13.60;99.90
23116;DHT22;11727;52.134;5.052;2023-05-10T13:52:23;13.70;99.90
23116;DHT22;11727;52.134;5.052;2023-05-10T13:54:56;13.70;99.90
23116;DHT22;11727;52.134;5.052;2023-05-10T13:57:22;13.70;99.90
23116;DHT22;11727;52.134;5.052;2023-05-10T13:59:52;13.80;99.90
23116;DHT22;11727;52.134;5.052;2023-05-10T14:02:17;13.80;99.90
23116;DHT22;11727;52.134;5.052;2023-05-10T14:04:43;13.80;99.90
23116;DHT22;11727;52.134;5.052;2023-05-10T14:07:09;13.80;99.90
23116;DHT22;11727;52.134;5.052;2023-05-10T14:09:34;13.80;99.90
23116;DHT22;11727;52.134;5.052;2023-05-10T14:12:00;13.80;99.90
23116;DHT22;11727;52.134;5.052;2023-05-10T14:14:26;13.80;99.90
23116;DHT22;11727;52.134;5.052;2023-05-10T14:16:52;13.70;99.90
23116;DHT22;11727;52.134;5.052;2023-05-10T14:19:21;13.70;99.90
23116;DHT22;11727;52.134;5.052;2023-05-10T14:21:47;13.60;99.90
23116;DHT22;11727;52.134;5.052;2023-05-10T14:24:16;13.60;99.90
23116;DHT22;11727;52.134;5.052;2023-05-10T14:26:43;13.70;99.90
23116;DHT22;11727;52.134;5.052;2023-05-10T14:29:08;13.60;99.90
23116;DHT22;11727;52.134;5.052;2023-05-10T14:31:35;13.70;99.90
23116;DHT22;11727;52.134;5.052;2023-05-10T14:34:01;13.70;99.90
23116;DHT22;11727;52.134;5.052;2023-05-10T14:36:27;13.80;99.90
23116;DHT22;11727;52.134;5.052;2023-05-10T14:38:52;13.90;99.90
23116;DHT22;11727;52.134;5.052;2023-05-10T14:41:21;13.90;99.90
23116;DHT22;11727;52.134;5.052;2023-05-10T14:43:47;13.90;99.90
23116;DHT22;11727;52.134;5.052;2023-05-10T14:46:12;13.90;99.90
23116;DHT22;11727;52.134;5.052;2023-05-10T14:48:38;13.90;99.90
23116;DHT22;11727;52.134;5.052;2023-05-10T14:51:03;13.80;99.90
23116;DHT22;11727;52.134;5.052;2023-05-10T14:53:29;13.80;99.90
23116;DHT22;11727;52.134;5.052;2023-05-10T14:55:55;13.80;99.90
23116;DHT22;11727;52.134;5.052;2023-05-10T14:58:20;13.80;99.90
23116;DHT22;11727;52.134;5.052;2023-05-10T15:00:46;13.80;99.90
23116;DHT22;11727;52.134;5.052;2023-05-10T15:03:12;13.80;99.90
23116;DHT22;11727;52.134;5.052;2023-05-10T15:05:37;13.70;99.90
23116;DHT22;11727;52.134;5.052;2023-05-10T15:08:05;13.70;99.90
23116;DHT22;11727;52.134;5.052;2023-05-10T15:10:31;13.70;99.90
23116;DHT22;11727;52.134;5.052;2023-05-10T15:13:03;13.70;99.90
23116;DHT22;11727;52.134;5.052;2023-05-10T15:15:32;13.80;99.90
23116;DHT22;11727;52.134;5.052;2023-05-10T15:17:57;13.80;99.90
23116;DHT22;11727;52.134;5.052;2023-05-10T15:20:23;13.80;99.90
23116;DHT22;11727;52.134;5.052;2023-05-10T15:22:51;13.80;99.90
23116;DHT22;11727;52.134;5.052;2023-05-10T15:25:19;13.80;99.90
23116;DHT22;11727;52.134;5.052;2023-05-10T15:27:45;13.80;99.90
23116;DHT22;11727;52.134;5.052;2023-05-10T15:30:11;13.80;99.90
23116;DHT22;11727;52.134;5.052;2023-05-10T15:32:37;13.80;99.90
23116;DHT22;11727;52.134;5.052;2023-05-10T15:35:05;13.90;99.90
23116;DHT22;11727;52.134;5.052;2023-05-10T15:37:30;13.90;99.90
23116;DHT22;11727;52.134;5.052;2023-05-10T15:39:56;13.90;99.90
23116;DHT22;11727;52.134;5.052;2023-05-10T15:42:29;13.90;99.90
23116;DHT22;11727;52.134;5.052;2023-05-10T15:44:55;14.00;99.90
23116;DHT22;11727;52.134;5.052;2023-05-10T15:47:21;14.00;99.90
23116;DHT22;11727;52.134;5.052;2023-05-10T15:49:52;14.00;99.90
23116;DHT22;11727;52.134;5.052;2023-05-10T15:52:34;13.90;99.90
23116;DHT22;11727;52.134;5.052;2023-05-10T15:55:00;13.90;99.90
23116;DHT22;11727;52.134;5.052;2023-05-10T15:57:26;14.00;99.90